sensor_id;sensor_type;location;lat;lon;timestamp;P1;durP1;ratioP1;P2;durP2;ratioP2
40022;SDS011;25713;-35.352;149.036;2023-03-13T00:01:31;2.67;;;1.98;;
40022;SDS011;25713;-35.352;149.036;2023-03-13T00:04:02;3.75;;;2.00;;
40022;SDS011;25713;-35.352;149.036;2023-03-13T00:06:33;3.05;;;1.92;;
40022;SDS011;25713;-35.352;149.036;2023-03-13T00:09:04;2.55;;;2.15;;
40022;SDS011;25713;-35.352;149.036;2023-03-13T00:11:34;2.65;;;2.00;;
40022;SDS011;25713;-35.352;149.036;2023-03-13T00:14:06;2.70;;;1.85;;
40022;SDS011;25713;-35.352;149.036;2023-03-13T00:19:04;2.95;;;1.85;;
40022;SDS011;25713;-35.352;149.036;2023-03-13T00:21:34;2.75;;;1.88;;
40022;SDS011;25713;-35.352;149.036;2023-03-13T00:24:04;2.95;;;1.83;;
40022;SDS011;25713;-35.352;149.036;2023-03-13T00:26:34;3.20;;;1.90;;
40022;SDS011;25713;-35.352;149.036;2023-03-13T00:29:03;2.38;;;1.50;;
40022;SDS011;25713;-35.352;149.036;2023-03-13T00:31:35;7.85;;;2.10;;
40022;SDS011;25713;-35.352;149.036;2023-03-13T00:34:04;1.92;;;1.70;;
40022;SDS011;25713;-35.352;149.036;2023-03-13T00:36:34;2.90;;;1.73;;
40022;SDS011;25713;-35.352;149.036;2023-03-13T00:39:04;1.70;;;1.60;;
40022;SDS011;25713;-35.352;149.036;2023-03-13T00:41:35;3.10;;;1.48;;
40022;SDS011;25713;-35.352;149.036;2023-03-13T00:44:07;2.90;;;1.63;;
40022;SDS011;25713;-35.352;149.036;2023-03-13T00:46:37;2.25;;;1.83;;
40022;SDS011;25713;-35.352;149.036;2023-03-13T00:49:06;3.72;;;1.60;;
40022;SDS011;25713;-35.352;149.036;2023-03-13T00:51:35;2.83;;;1.70;;
40022;SDS011;25713;-35.352;149.036;2023-03-13T00:54:05;2.85;;;1.80;;
40022;SDS011;25713;-35.352;149.036;2023-03-13T00:56:35;2.65;;;1.42;;
40022;SDS011;25713;-35.352;149.036;2023-03-13T00:59:07;2.20;;;1.48;;
40022;SDS011;25713;-35.352;149.036;2023-03-13T01:01:36;3.67;;;1.77;;
40022;SDS011;25713;-35.352;149.036;2023-03-13T01:04:06;2.50;;;1.58;;
40022;SDS011;25713;-35.352;149.036;2023-03-13T01:06:37;1.88;;;1.67;;
40022;SDS011;25713;-35.352;149.036;2023-03-13T01:09:08;2.35;;;1.70;;
40022;SDS011;25713;-35.352;149.036;2023-03-13T01:11:39;2.03;;;1.33;;
40022;SDS011;25713;-35.352;149.036;2023-03-13T01:14:12;1.63;;;1.38;;
40022;SDS011;25713;-35.352;149.036;2023-03-13T01:16:43;2.65;;;1.15;;
40022;SDS011;25713;-35.352;149.036;2023-03-13T01:19:12;3.40;;;1.50;;
40022;SDS011;25713;-35.352;149.036;2023-03-13T01:21:43;3.63;;;1.30;;
40022;SDS011;25713;-35.352;149.036;2023-03-13T01:24:12;1.70;;;1.20;;
40022;SDS011;25713;-35.352;149.036;2023-03-13T01:26:43;1.95;;;1.40;;
40022;SDS011;25713;-35.352;149.036;2023-03-13T01:29:17;2.20;;;1.30;;
40022;SDS011;25713;-35.352;149.036;2023-03-13T01:31:47;2.45;;;1.40;;
40022;SDS011;25713;-35.352;149.036;2023-03-13T01:34:17;3.63;;;1.20;;
40022;SDS011;25713;-35.352;149.036;2023-03-13T01:36:47;1.63;;;1.20;;
40022;SDS011;25713;-35.352;149.036;2023-03-13T01:39:16;3.00;;;1.15;;
40022;SDS011;25713;-35.352;149.036;2023-03-13T01:41:47;2.92;;;1.23;;
40022;SDS011;25713;-35.352;149.036;2023-03-13T01:44:21;2.13;;;1.13;;
40022;SDS011;25713;-35.352;149.036;2023-03-13T01:46:53;1.83;;;1.25;;
40022;SDS011;25713;-35.352;149.036;2023-03-13T01:49:26;2.95;;;1.00;;
40022;SDS011;25713;-35.352;149.036;2023-03-13T01:52:04;1.92;;;0.93;;
40022;SDS011;25713;-35.352;149.036;2023-03-13T01:54:44;2.25;;;0.95;;
40022;SDS011;25713;-35.352;149.036;2023-03-13T01:57:18;1.83;;;0.90;;
40022;SDS011;25713;-35.352;149.036;2023-03-13T01:59:56;2.28;;;1.00;;
40022;SDS011;25713;-35.352;149.036;2023-03-13T02:02:28;2.45;;;0.98;;
40022;SDS011;25713;-35.352;149.036;2023-03-13T02:04:59;1.38;;;0.80;;
40022;SDS011;25713;-35.352;149.036;2023-03-13T02:07:31;2.08;;;0.80;;
40022;SDS011;25713;-35.352;149.036;2023-03-13T02:10:04;1.67;;;1.05;;
40022;SDS011;25713;-35.352;149.036;2023-03-13T02:12:35;1.17;;;0.80;;
40022;SDS011;25713;-35.352;149.036;2023-03-13T02:15:09;1.80;;;0.90;;
40022;SDS011;25713;-35.352;149.036;2023-03-13T02:17:43;1.35;;;0.73;;
40022;SDS011;25713;-35.352;149.036;2023-03-13T02:20:13;2.20;;;0.88;;
40022;SDS011;25713;-35.352;149.036;2023-03-13T02:22:46;1.75;;;0.95;;
40022;SDS011;25713;-35.352;149.036;2023-03-13T02:25:28;3.28;;;1.00;;
40022;SDS011;25713;-35.352;149.036;2023-03-13T02:28:05;1.05;;;0.80;;
40022;SDS011;25713;-35.352;149.036;2023-03-13T02:30:39;1.98;;;0.75;;
40022;SDS011;25713;-35.352;149.036;2023-03-13T02:33:10;1.20;;;0.65;;
40022;SDS011;25713;-35.352;149.036;2023-03-13T02:35:41;2.95;;;0.80;;
40022;SDS011;25713;-35.352;149.036;2023-03-13T02:38:15;1.08;;;0.70;;
40022;SDS011;25713;-35.352;149.036;2023-03-13T02:40:49;1.42;;;0.80;;
40022;SDS011;25713;-35.352;149.036;2023-03-13T02:43:22;2.00;;;0.70;;
40022;SDS011;25713;-35.352;149.036;2023-03-13T02:46:00;2.47;;;0.85;;
40022;SDS011;25713;-35.352;149.036;2023-03-13T02:48:33;1.40;;;0.75;;
40022;SDS011;25713;-35.352;149.036;2023-03-13T02:51:05;4.00;;;0.93;;
40022;SDS011;25713;-35.352;149.036;2023-03-13T02:53:40;2.08;;;0.73;;
40022;SDS011;25713;-35.352;149.036;2023-03-13T02:56:13;2.55;;;0.70;;
40022;SDS011;25713;-35.352;149.036;2023-03-13T02:58:44;1.90;;;0.60;;
40022;SDS011;25713;-35.352;149.036;2023-03-13T03:01:14;1.35;;;0.70;;
40022;SDS011;25713;-35.352;149.036;2023-03-13T03:03:45;2.38;;;0.60;;
40022;SDS011;25713;-35.352;149.036;2023-03-13T03:06:14;2.60;;;0.70;;
40022;SDS011;25713;-35.352;149.036;2023-03-13T03:08:45;0.93;;;0.57;;
40022;SDS011;25713;-35.352;149.036;2023-03-13T03:11:17;1.08;;;0.60;;
40022;SDS011;25713;-35.352;149.036;2023-03-13T03:13:51;1.95;;;0.55;;
40022;SDS011;25713;-35.352;149.036;2023-03-13T03:16:21;1.40;;;0.82;;
40022;SDS011;25713;-35.352;149.036;2023-03-13T03:18:51;2.00;;;0.60;;
40022;SDS011;25713;-35.352;149.036;2023-03-13T03:21:20;1.20;;;0.70;;
40022;SDS011;25713;-35.352;149.036;2023-03-13T03:23:52;1.33;;;0.80;;
40022;SDS011;25713;-35.352;149.036;2023-03-13T03:26:23;2.88;;;0.70;;
40022;SDS011;25713;-35.352;149.036;2023-03-13T03:28:53;2.55;;;0.50;;
40022;SDS011;25713;-35.352;149.036;2023-03-13T03:31:23;1.30;;;0.55;;
40022;SDS011;25713;-35.352;149.036;2023-03-13T03:33:52;2.85;;;0.80;;
40022;SDS011;25713;-35.352;149.036;2023-03-13T03:36:23;2.33;;;0.70;;
40022;SDS011;25713;-35.352;149.036;2023-03-13T03:38:53;0.93;;;0.50;;
40022;SDS011;25713;-35.352;149.036;2023-03-13T03:41:27;1.23;;;0.60;;
40022;SDS011;25713;-35.352;149.036;2023-03-13T03:43:58;1.98;;;0.57;;
40022;SDS011;25713;-35.352;149.036;2023-03-13T03:46:36;1.25;;;0.80;;
40022;SDS011;25713;-35.352;149.036;2023-03-13T03:49:06;3.45;;;0.70;;
40022;SDS011;25713;-35.352;149.036;2023-03-13T03:51:35;1.67;;;0.63;;
40022;SDS011;25713;-35.352;149.036;2023-03-13T03:54:05;0.90;;;0.60;;
40022;SDS011;25713;-35.352;149.036;2023-03-13T03:56:37;1.55;;;0.70;;
40022;SDS011;25713;-35.352;149.036;2023-03-13T03:59:06;1.67;;;0.70;;
40022;SDS011;25713;-35.352;149.036;2023-03-13T04:01:46;2.10;;;0.60;;
40022;SDS011;25713;-35.352;149.036;2023-03-13T04:04:20;2.85;;;0.93;;
40022;SDS011;25713;-35.352;149.036;2023-03-13T04:06:56;1.77;;;0.50;;
40022;SDS011;25713;-35.352;149.036;2023-03-13T04:09:28;1.73;;;0.60;;
40022;SDS011;25713;-35.352;149.036;2023-03-13T04:11:59;1.52;;;0.63;;
40022;SDS011;25713;-35.352;149.036;2023-03-13T04:14:32;2.08;;;0.60;;
40022;SDS011;25713;-35.352;149.036;2023-03-13T04:17:05;3.58;;;0.82;;
40022;SDS011;25713;-35.352;149.036;2023-03-13T04:19:34;3.65;;;0.68;;
40022;SDS011;25713;-35.352;149.036;2023-03-13T04:22:03;1.05;;;0.50;;
40022;SDS011;25713;-35.352;149.036;2023-03-13T04:24:33;1.75;;;0.68;;
40022;SDS011;25713;-35.352;149.036;2023-03-13T04:27:05;2.08;;;0.50;;
40022;SDS011;25713;-35.352;149.036;2023-03-13T04:29:35;3.35;;;0.80;;
40022;SDS011;25713;-35.352;149.036;2023-03-13T04:32:23;2.30;;;0.70;;
40022;SDS011;25713;-35.352;149.036;2023-03-13T04:35:13;3.28;;;0.70;;
40022;SDS011;25713;-35.352;149.036;2023-03-13T04:38:06;4.20;;;0.60;;
40022;SDS011;25713;-35.352;149.036;2023-03-13T04:40:53;1.98;;;0.77;;
40022;SDS011;25713;-35.352;149.036;2023-03-13T04:43:50;2.42;;;0.70;;
40022;SDS011;25713;-35.352;149.036;2023-03-13T04:46:32;2.53;;;0.60;;
40022;SDS011;25713;-35.352;149.036;2023-03-13T04:51:43;1.77;;;0.75;;
40022;SDS011;25713;-35.352;149.036;2023-03-13T04:54:12;2.83;;;0.70;;
40022;SDS011;25713;-35.352;149.036;2023-03-13T04:56:58;2.47;;;0.88;;
40022;SDS011;25713;-35.352;149.036;2023-03-13T04:59:44;2.88;;;0.75;;
40022;SDS011;25713;-35.352;149.036;2023-03-13T05:02:22;6.80;;;1.00;;
40022;SDS011;25713;-35.352;149.036;2023-03-13T05:05:22;3.25;;;0.82;;
40022;SDS011;25713;-35.352;149.036;2023-03-13T05:08:20;3.92;;;0.90;;
40022;SDS011;25713;-35.352;149.036;2023-03-13T05:11:07;2.25;;;0.80;;
40022;SDS011;25713;-35.352;149.036;2023-03-13T05:13:55;3.92;;;0.80;;
40022;SDS011;25713;-35.352;149.036;2023-03-13T05:16:44;3.20;;;0.95;;
40022;SDS011;25713;-35.352;149.036;2023-03-13T05:19:34;3.15;;;0.70;;
40022;SDS011;25713;-35.352;149.036;2023-03-13T05:22:35;4.05;;;0.82;;
40022;SDS011;25713;-35.352;149.036;2023-03-13T05:25:40;3.17;;;0.70;;
40022;SDS011;25713;-35.352;149.036;2023-03-13T05:28:31;2.55;;;0.95;;
40022;SDS011;25713;-35.352;149.036;2023-03-13T05:31:30;2.58;;;0.70;;
40022;SDS011;25713;-35.352;149.036;2023-03-13T05:34:14;2.75;;;0.70;;
40022;SDS011;25713;-35.352;149.036;2023-03-13T05:37:04;0.80;;;0.43;;
40022;SDS011;25713;-35.352;149.036;2023-03-13T05:39:45;2.42;;;0.70;;
40022;SDS011;25713;-35.352;149.036;2023-03-13T05:42:46;3.10;;;0.60;;
40022;SDS011;25713;-35.352;149.036;2023-03-13T05:45:23;1.13;;;0.50;;
40022;SDS011;25713;-35.352;149.036;2023-03-13T05:48:17;0.95;;;0.60;;
40022;SDS011;25713;-35.352;149.036;2023-03-13T05:51:07;2.75;;;0.68;;
40022;SDS011;25713;-35.352;149.036;2023-03-13T05:54:14;0.30;;;0.30;;
40022;SDS011;25713;-35.352;149.036;2023-03-13T05:57:02;1.50;;;0.57;;
40022;SDS011;25713;-35.352;149.036;2023-03-13T05:59:38;1.67;;;0.40;;
40022;SDS011;25713;-35.352;149.036;2023-03-13T06:02:34;0.60;;;0.35;;
40022;SDS011;25713;-35.352;149.036;2023-03-13T06:05:06;1.30;;;0.43;;
40022;SDS011;25713;-35.352;149.036;2023-03-13T06:07:38;0.30;;;0.30;;
40022;SDS011;25713;-35.352;149.036;2023-03-13T06:12:37;1.85;;;0.50;;
40022;SDS011;25713;-35.352;149.036;2023-03-13T06:15:10;0.50;;;0.30;;
40022;SDS011;25713;-35.352;149.036;2023-03-13T06:17:54;1.10;;;0.50;;
40022;SDS011;25713;-35.352;149.036;2023-03-13T06:20:24;1.48;;;0.32;;
40022;SDS011;25713;-35.352;149.036;2023-03-13T06:22:55;2.67;;;0.50;;
40022;SDS011;25713;-35.352;149.036;2023-03-13T06:25:25;1.65;;;0.40;;
40022;SDS011;25713;-35.352;149.036;2023-03-13T06:27:54;1.17;;;0.50;;
40022;SDS011;25713;-35.352;149.036;2023-03-13T06:30:24;0.68;;;0.38;;
40022;SDS011;25713;-35.352;149.036;2023-03-13T06:32:53;1.40;;;0.70;;
40022;SDS011;25713;-35.352;149.036;2023-03-13T06:35:24;1.60;;;0.82;;
40022;SDS011;25713;-35.352;149.036;2023-03-13T06:37:55;1.42;;;0.47;;
40022;SDS011;25713;-35.352;149.036;2023-03-13T06:40:25;2.00;;;0.50;;
40022;SDS011;25713;-35.352;149.036;2023-03-13T06:42:54;0.77;;;0.40;;
40022;SDS011;25713;-35.352;149.036;2023-03-13T06:45:23;4.18;;;0.93;;
40022;SDS011;25713;-35.352;149.036;2023-03-13T06:47:53;1.45;;;0.60;;
40022;SDS011;25713;-35.352;149.036;2023-03-13T06:50:22;0.80;;;0.45;;
40022;SDS011;25713;-35.352;149.036;2023-03-13T06:52:52;1.17;;;0.50;;
40022;SDS011;25713;-35.352;149.036;2023-03-13T06:55:23;0.83;;;0.50;;
40022;SDS011;25713;-35.352;149.036;2023-03-13T06:57:53;2.22;;;0.43;;
40022;SDS011;25713;-35.352;149.036;2023-03-13T07:00:22;1.48;;;0.52;;
40022;SDS011;25713;-35.352;149.036;2023-03-13T07:02:52;1.30;;;0.40;;
40022;SDS011;25713;-35.352;149.036;2023-03-13T07:05:22;2.47;;;0.50;;
40022;SDS011;25713;-35.352;149.036;2023-03-13T07:07:51;8.35;;;0.40;;
40022;SDS011;25713;-35.352;149.036;2023-03-13T07:10:22;3.50;;;0.40;;
40022;SDS011;25713;-35.352;149.036;2023-03-13T07:12:52;1.50;;;0.40;;
40022;SDS011;25713;-35.352;149.036;2023-03-13T07:15:22;3.00;;;0.30;;
40022;SDS011;25713;-35.352;149.036;2023-03-13T07:17:51;2.78;;;0.43;;
40022;SDS011;25713;-35.352;149.036;2023-03-13T07:20:22;2.83;;;0.70;;
40022;SDS011;25713;-35.352;149.036;2023-03-13T07:22:52;2.08;;;0.55;;
40022;SDS011;25713;-35.352;149.036;2023-03-13T07:25:23;2.10;;;0.40;;
40022;SDS011;25713;-35.352;149.036;2023-03-13T07:27:52;1.60;;;0.43;;
40022;SDS011;25713;-35.352;149.036;2023-03-13T07:30:22;1.85;;;0.40;;
40022;SDS011;25713;-35.352;149.036;2023-03-13T07:32:51;2.53;;;0.50;;
40022;SDS011;25713;-35.352;149.036;2023-03-13T07:35:21;2.33;;;0.50;;
40022;SDS011;25713;-35.352;149.036;2023-03-13T07:37:51;0.63;;;0.30;;
40022;SDS011;25713;-35.352;149.036;2023-03-13T07:40:22;1.90;;;0.38;;
40022;SDS011;25713;-35.352;149.036;2023-03-13T07:42:52;1.10;;;0.40;;
40022;SDS011;25713;-35.352;149.036;2023-03-13T07:45:21;1.55;;;0.50;;
40022;SDS011;25713;-35.352;149.036;2023-03-13T07:47:50;1.42;;;0.43;;
40022;SDS011;25713;-35.352;149.036;2023-03-13T07:50:20;0.75;;;0.40;;
40022;SDS011;25713;-35.352;149.036;2023-03-13T07:52:50;1.40;;;0.43;;
40022;SDS011;25713;-35.352;149.036;2023-03-13T07:55:19;2.40;;;0.50;;
40022;SDS011;25713;-35.352;149.036;2023-03-13T07:57:51;0.20;;;0.20;;
40022;SDS011;25713;-35.352;149.036;2023-03-13T08:00:20;1.08;;;0.40;;
40022;SDS011;25713;-35.352;149.036;2023-03-13T08:02:50;0.93;;;0.47;;
40022;SDS011;25713;-35.352;149.036;2023-03-13T08:05:20;1.45;;;0.43;;
40022;SDS011;25713;-35.352;149.036;2023-03-13T08:07:49;1.17;;;0.50;;
40022;SDS011;25713;-35.352;149.036;2023-03-13T08:10:19;2.63;;;0.50;;
40022;SDS011;25713;-35.352;149.036;2023-03-13T08:12:50;2.30;;;0.63;;
40022;SDS011;25713;-35.352;149.036;2023-03-13T08:15:20;1.75;;;0.70;;
40022;SDS011;25713;-35.352;149.036;2023-03-13T08:17:49;2.60;;;0.52;;
40022;SDS011;25713;-35.352;149.036;2023-03-13T08:20:19;3.78;;;0.70;;
40022;SDS011;25713;-35.352;149.036;2023-03-13T08:22:48;1.63;;;0.50;;
40022;SDS011;25713;-35.352;149.036;2023-03-13T08:25:18;2.60;;;0.60;;
40022;SDS011;25713;-35.352;149.036;2023-03-13T08:27:49;0.98;;;0.60;;
40022;SDS011;25713;-35.352;149.036;2023-03-13T08:30:18;0.77;;;0.53;;
40022;SDS011;25713;-35.352;149.036;2023-03-13T08:32:48;1.35;;;0.60;;
40022;SDS011;25713;-35.352;149.036;2023-03-13T08:35:17;1.95;;;0.70;;
40022;SDS011;25713;-35.352;149.036;2023-03-13T08:37:47;3.90;;;0.70;;
40022;SDS011;25713;-35.352;149.036;2023-03-13T08:40:16;1.55;;;0.50;;
40022;SDS011;25713;-35.352;149.036;2023-03-13T08:42:45;1.17;;;0.40;;
40022;SDS011;25713;-35.352;149.036;2023-03-13T08:45:17;1.63;;;0.60;;
40022;SDS011;25713;-35.352;149.036;2023-03-13T08:47:46;2.92;;;0.80;;
40022;SDS011;25713;-35.352;149.036;2023-03-13T08:50:20;1.80;;;0.50;;
40022;SDS011;25713;-35.352;149.036;2023-03-13T08:52:49;1.02;;;0.50;;
40022;SDS011;25713;-35.352;149.036;2023-03-13T08:55:18;1.92;;;0.60;;
40022;SDS011;25713;-35.352;149.036;2023-03-13T08:57:50;1.17;;;0.50;;
40022;SDS011;25713;-35.352;149.036;2023-03-13T09:00:19;1.10;;;0.50;;
40022;SDS011;25713;-35.352;149.036;2023-03-13T09:02:49;1.05;;;0.38;;
40022;SDS011;25713;-35.352;149.036;2023-03-13T09:05:19;1.05;;;0.30;;
40022;SDS011;25713;-35.352;149.036;2023-03-13T09:07:48;1.40;;;0.50;;
40022;SDS011;25713;-35.352;149.036;2023-03-13T09:10:18;2.63;;;0.50;;
40022;SDS011;25713;-35.352;149.036;2023-03-13T09:12:49;1.35;;;0.32;;
40022;SDS011;25713;-35.352;149.036;2023-03-13T09:15:19;1.38;;;0.45;;
40022;SDS011;25713;-35.352;149.036;2023-03-13T09:17:48;0.55;;;0.40;;
40022;SDS011;25713;-35.352;149.036;2023-03-13T09:20:18;0.88;;;0.30;;
40022;SDS011;25713;-35.352;149.036;2023-03-13T09:22:47;1.00;;;0.45;;
40022;SDS011;25713;-35.352;149.036;2023-03-13T09:25:17;1.05;;;0.30;;
40022;SDS011;25713;-35.352;149.036;2023-03-13T09:27:46;1.38;;;0.28;;
40022;SDS011;25713;-35.352;149.036;2023-03-13T09:30:18;0.83;;;0.40;;
40022;SDS011;25713;-35.352;149.036;2023-03-13T09:32:47;3.55;;;0.30;;
40022;SDS011;25713;-35.352;149.036;2023-03-13T09:35:17;0.95;;;0.40;;
40022;SDS011;25713;-35.352;149.036;2023-03-13T09:37:46;0.35;;;0.20;;
40022;SDS011;25713;-35.352;149.036;2023-03-13T09:40:16;1.50;;;0.30;;
40022;SDS011;25713;-35.352;149.036;2023-03-13T09:42:47;1.50;;;0.33;;
40022;SDS011;25713;-35.352;149.036;2023-03-13T09:45:22;1.33;;;0.50;;
40022;SDS011;25713;-35.352;149.036;2023-03-13T09:47:58;1.40;;;0.47;;
40022;SDS011;25713;-35.352;149.036;2023-03-13T09:50:32;0.30;;;0.30;;
40022;SDS011;25713;-35.352;149.036;2023-03-13T09:53:03;0.40;;;0.30;;
40022;SDS011;25713;-35.352;149.036;2023-03-13T09:55:40;0.63;;;0.28;;
40022;SDS011;25713;-35.352;149.036;2023-03-13T09:58:16;0.30;;;0.30;;
40022;SDS011;25713;-35.352;149.036;2023-03-13T10:00:50;3.00;;;0.40;;
40022;SDS011;25713;-35.352;149.036;2023-03-13T10:03:22;1.35;;;0.40;;
40022;SDS011;25713;-35.352;149.036;2023-03-13T10:05:54;1.25;;;0.40;;
40022;SDS011;25713;-35.352;149.036;2023-03-13T10:08:27;0.90;;;0.30;;
40022;SDS011;25713;-35.352;149.036;2023-03-13T10:11:03;0.80;;;0.35;;
40022;SDS011;25713;-35.352;149.036;2023-03-13T10:13:43;1.42;;;0.30;;
40022;SDS011;25713;-35.352;149.036;2023-03-13T10:16:16;1.05;;;0.30;;
40022;SDS011;25713;-35.352;149.036;2023-03-13T10:18:52;1.67;;;0.30;;
40022;SDS011;25713;-35.352;149.036;2023-03-13T10:23:53;0.77;;;0.30;;
40022;SDS011;25713;-35.352;149.036;2023-03-13T10:26:26;0.98;;;0.30;;
40022;SDS011;25713;-35.352;149.036;2023-03-13T10:31:36;1.45;;;0.30;;
40022;SDS011;25713;-35.352;149.036;2023-03-13T10:36:41;1.50;;;0.45;;
40022;SDS011;25713;-35.352;149.036;2023-03-13T10:39:14;0.30;;;0.30;;
40022;SDS011;25713;-35.352;149.036;2023-03-13T10:41:44;0.80;;;0.30;;
40022;SDS011;25713;-35.352;149.036;2023-03-13T10:44:17;0.98;;;0.32;;
40022;SDS011;25713;-35.352;149.036;2023-03-13T10:46:48;0.30;;;0.20;;
40022;SDS011;25713;-35.352;149.036;2023-03-13T10:49:19;1.80;;;0.35;;
40022;SDS011;25713;-35.352;149.036;2023-03-13T10:51:50;0.52;;;0.20;;
40022;SDS011;25713;-35.352;149.036;2023-03-13T10:54:21;0.20;;;0.20;;
40022;SDS011;25713;-35.352;149.036;2023-03-13T10:56:52;1.70;;;0.40;;
40022;SDS011;25713;-35.352;149.036;2023-03-13T10:59:42;0.20;;;0.20;;
40022;SDS011;25713;-35.352;149.036;2023-03-13T11:02:22;1.33;;;0.13;;
40022;SDS011;25713;-35.352;149.036;2023-03-13T11:04:54;1.15;;;0.30;;
40022;SDS011;25713;-35.352;149.036;2023-03-13T11:07:28;0.57;;;0.25;;
40022;SDS011;25713;-35.352;149.036;2023-03-13T11:10:00;0.57;;;0.20;;
40022;SDS011;25713;-35.352;149.036;2023-03-13T11:12:38;0.35;;;0.20;;
40022;SDS011;25713;-35.352;149.036;2023-03-13T11:15:17;0.32;;;0.20;;
40022;SDS011;25713;-35.352;149.036;2023-03-13T11:17:51;2.45;;;0.40;;
40022;SDS011;25713;-35.352;149.036;2023-03-13T11:20:26;0.20;;;0.20;;
40022;SDS011;25713;-35.352;149.036;2023-03-13T11:23:04;0.38;;;0.38;;
40022;SDS011;25713;-35.352;149.036;2023-03-13T11:25:42;0.10;;;0.10;;
40022;SDS011;25713;-35.352;149.036;2023-03-13T11:28:24;1.05;;;0.20;;
40022;SDS011;25713;-35.352;149.036;2023-03-13T11:33:47;0.13;;;0.13;;
40022;SDS011;25713;-35.352;149.036;2023-03-13T11:36:22;0.17;;;0.17;;
40022;SDS011;25713;-35.352;149.036;2023-03-13T11:38:57;0.25;;;0.20;;
40022;SDS011;25713;-35.352;149.036;2023-03-13T11:44:22;1.15;;;0.30;;
40022;SDS011;25713;-35.352;149.036;2023-03-13T11:50:18;1.35;;;0.20;;
40022;SDS011;25713;-35.352;149.036;2023-03-13T11:52:59;0.90;;;0.30;;
40022;SDS011;25713;-35.352;149.036;2023-03-13T11:55:41;0.50;;;0.20;;
40022;SDS011;25713;-35.352;149.036;2023-03-13T11:58:19;1.95;;;0.30;;
40022;SDS011;25713;-35.352;149.036;2023-03-13T12:00:59;0.28;;;0.28;;
40022;SDS011;25713;-35.352;149.036;2023-03-13T12:03:36;0.75;;;0.20;;
40022;SDS011;25713;-35.352;149.036;2023-03-13T12:06:11;1.05;;;0.30;;
40022;SDS011;25713;-35.352;149.036;2023-03-13T12:08:51;0.40;;;0.20;;
40022;SDS011;25713;-35.352;149.036;2023-03-13T12:11:25;0.20;;;0.20;;
40022;SDS011;25713;-35.352;149.036;2023-03-13T12:13:59;0.93;;;0.25;;
40022;SDS011;25713;-35.352;149.036;2023-03-13T12:16:36;0.68;;;0.30;;
40022;SDS011;25713;-35.352;149.036;2023-03-13T12:19:14;0.40;;;0.20;;
40022;SDS011;25713;-35.352;149.036;2023-03-13T12:21:47;0.10;;;0.10;;
40022;SDS011;25713;-35.352;149.036;2023-03-13T12:24:22;0.55;;;0.20;;
40022;SDS011;25713;-35.352;149.036;2023-03-13T12:26:57;3.63;;;0.20;;
40022;SDS011;25713;-35.352;149.036;2023-03-13T12:29:38;0.90;;;0.32;;
40022;SDS011;25713;-35.352;149.036;2023-03-13T12:32:15;1.65;;;0.35;;
40022;SDS011;25713;-35.352;149.036;2023-03-13T12:34:58;0.70;;;0.30;;
40022;SDS011;25713;-35.352;149.036;2023-03-13T12:37:37;0.47;;;0.20;;
40022;SDS011;25713;-35.352;149.036;2023-03-13T12:40:15;0.77;;;0.20;;
40022;SDS011;25713;-35.352;149.036;2023-03-13T12:42:54;0.20;;;0.20;;
40022;SDS011;25713;-35.352;149.036;2023-03-13T12:45:29;0.88;;;0.40;;
40022;SDS011;25713;-35.352;149.036;2023-03-13T12:51:22;0.82;;;0.30;;
40022;SDS011;25713;-35.352;149.036;2023-03-13T12:57:05;0.68;;;0.20;;
40022;SDS011;25713;-35.352;149.036;2023-03-13T12:59:48;1.33;;;0.20;;
40022;SDS011;25713;-35.352;149.036;2023-03-13T13:04:50;1.02;;;0.30;;
40022;SDS011;25713;-35.352;149.036;2023-03-13T13:07:24;1.23;;;0.40;;
40022;SDS011;25713;-35.352;149.036;2023-03-13T13:10:03;0.82;;;0.30;;
40022;SDS011;25713;-35.352;149.036;2023-03-13T13:12:43;1.08;;;0.30;;
40022;SDS011;25713;-35.352;149.036;2023-03-13T13:15:18;0.40;;;0.30;;
40022;SDS011;25713;-35.352;149.036;2023-03-13T13:17:53;0.40;;;0.30;;
40022;SDS011;25713;-35.352;149.036;2023-03-13T13:20:40;0.20;;;0.20;;
40022;SDS011;25713;-35.352;149.036;2023-03-13T13:23:27;0.75;;;0.45;;
40022;SDS011;25713;-35.352;149.036;2023-03-13T13:35:29;0.75;;;0.30;;
40022;SDS011;25713;-35.352;149.036;2023-03-13T13:40:59;1.08;;;0.30;;
40022;SDS011;25713;-35.352;149.036;2023-03-13T13:43:31;0.73;;;0.40;;
40022;SDS011;25713;-35.352;149.036;2023-03-13T13:46:04;0.52;;;0.25;;
40022;SDS011;25713;-35.352;149.036;2023-03-13T13:48:44;1.77;;;0.30;;
40022;SDS011;25713;-35.352;149.036;2023-03-13T13:51:23;1.50;;;0.30;;
40022;SDS011;25713;-35.352;149.036;2023-03-13T13:53:55;0.65;;;0.30;;
40022;SDS011;25713;-35.352;149.036;2023-03-13T13:56:33;0.70;;;0.25;;
40022;SDS011;25713;-35.352;149.036;2023-03-13T14:02:15;1.38;;;0.40;;
40022;SDS011;25713;-35.352;149.036;2023-03-13T14:04:54;0.45;;;0.20;;
40022;SDS011;25713;-35.352;149.036;2023-03-13T14:07:28;0.60;;;0.20;;
40022;SDS011;25713;-35.352;149.036;2023-03-13T14:10:11;2.10;;;0.40;;
40022;SDS011;25713;-35.352;149.036;2023-03-13T14:12:45;1.17;;;0.30;;
40022;SDS011;25713;-35.352;149.036;2023-03-13T14:15:19;0.22;;;0.20;;
40022;SDS011;25713;-35.352;149.036;2023-03-13T14:17:49;0.95;;;0.30;;
40022;SDS011;25713;-35.352;149.036;2023-03-13T14:20:24;1.90;;;0.70;;
40022;SDS011;25713;-35.352;149.036;2023-03-13T14:22:56;1.10;;;0.30;;
40022;SDS011;25713;-35.352;149.036;2023-03-13T14:25:38;1.50;;;0.40;;
40022;SDS011;25713;-35.352;149.036;2023-03-13T14:28:17;2.00;;;0.20;;
40022;SDS011;25713;-35.352;149.036;2023-03-13T14:30:48;0.40;;;0.20;;
40022;SDS011;25713;-35.352;149.036;2023-03-13T14:33:19;0.20;;;0.20;;
40022;SDS011;25713;-35.352;149.036;2023-03-13T14:35:49;1.95;;;0.30;;
40022;SDS011;25713;-35.352;149.036;2023-03-13T14:38:19;0.60;;;0.30;;
40022;SDS011;25713;-35.352;149.036;2023-03-13T14:40:50;2.25;;;0.40;;
40022;SDS011;25713;-35.352;149.036;2023-03-13T14:45:51;1.00;;;0.50;;
40022;SDS011;25713;-35.352;149.036;2023-03-13T14:48:21;0.90;;;0.30;;
40022;SDS011;25713;-35.352;149.036;2023-03-13T15:51:58;0.75;;;0.20;;
40022;SDS011;25713;-35.352;149.036;2023-03-13T15:54:27;0.90;;;0.30;;
40022;SDS011;25713;-35.352;149.036;2023-03-13T15:56:57;1.60;;;0.28;;
40022;SDS011;25713;-35.352;149.036;2023-03-13T15:59:27;0.93;;;0.30;;
40022;SDS011;25713;-35.352;149.036;2023-03-13T16:01:57;0.95;;;0.30;;
40022;SDS011;25713;-35.352;149.036;2023-03-13T16:04:26;0.47;;;0.20;;
40022;SDS011;25713;-35.352;149.036;2023-03-13T16:06:57;0.90;;;0.30;;
40022;SDS011;25713;-35.352;149.036;2023-03-13T16:09:27;0.13;;;0.13;;
40022;SDS011;25713;-35.352;149.036;2023-03-13T16:11:57;0.35;;;0.20;;
40022;SDS011;25713;-35.352;149.036;2023-03-13T16:14:26;0.80;;;0.17;;
40022;SDS011;25713;-35.352;149.036;2023-03-13T16:16:56;0.70;;;0.30;;
40022;SDS011;25713;-35.352;149.036;2023-03-13T16:19:25;0.15;;;0.10;;
40022;SDS011;25713;-35.352;149.036;2023-03-13T16:21:55;0.20;;;0.20;;
40022;SDS011;25713;-35.352;149.036;2023-03-13T16:24:26;0.20;;;0.20;;
40022;SDS011;25713;-35.352;149.036;2023-03-13T16:26:56;0.52;;;0.22;;
40022;SDS011;25713;-35.352;149.036;2023-03-13T16:29:26;1.50;;;0.57;;
40022;SDS011;25713;-35.352;149.036;2023-03-13T16:31:56;1.08;;;0.20;;
40022;SDS011;25713;-35.352;149.036;2023-03-13T16:34:25;0.40;;;0.20;;
40022;SDS011;25713;-35.352;149.036;2023-03-13T16:36:55;0.40;;;0.20;;
40022;SDS011;25713;-35.352;149.036;2023-03-13T16:39:26;0.98;;;0.45;;